ENMS/MJF METAR and TAF weather

Enter ICAO airport designator
Station Type Date Time Source
ENMS METAR 2022/12/04 12:50 UTC NOAA

ENMS 041250Z 20003KT 160V250 9999 FEW033 BKN036 M06/M07 Q1032 RMK WIND 412FT 16003KT


Station Type Date Time Source
ENMS Decoded METAR 2022/12/04 12:50 UTC NOAA

Mosjoen Kjaerstad, Norway (ENMS) 65-48N 013-08E
Dec 04, 2022 - 07:50 AM EST / 2022.12.04 1250 UTC
Wind: from the SSW (200 degrees) at 3 MPH (3 KT) (direction variable):0
Visibility: greater than 7 mile(s):0
Sky conditions: mostly cloudy
Temperature: 21 F (-6 C)
Dew Point: 19 F (-7 C)
Relative Humidity: 92%
Pressure (altimeter): 30.47 in. Hg (1032 hPa)
ob: ENMS 041250Z 20003KT 160V250 9999 FEW033 BKN036 M06/M07 Q1032 RMK WIND 412FT 16003KT
cycle: 13

Station Type Date Time Source
ENMS TAF UTC NOAA

Error!

Example: see airport list